Time;durP1;ratioP1;P1;durP2;ratioP2;P2;SDS_P1;SDS_P2;PMS_P1;PMS_P2;Temp;Humidity;BMP_temperature;BMP_pressure;BME280_temperature;BME280_humidity;BME280_pressure;Samples;Min_cycle;Max_cycle;Signal;HPM_P1;HPM_P2
2023/03/29 07:29:12;;;;;;;4.20;1.93;;;5.70;99.90;;;;;;5112207;27;20575;-76
2023/03/29 07:33:52;;;;;;;2.80;1.50;;;5.80;99.90;;;;;;5111289;27;20610;-77
2023/03/29 07:38:09;;;;;;;1.83;1.60;;;5.40;99.90;;;;;;5070980;28;20929;-76
2023/03/29 07:42:00;;;;;;;5.00;2.53;;;6.40;99.90;;;;;;5173791;27;20623;-76
2023/03/29 07:46:22;;;;;;;2.67;1.50;;;6.60;99.90;;;;;;5132774;27;20288;-76
2023/03/29 07:50:16;;;;;;;1.90;1.60;;;7.00;99.90;;;;;;5133086;27;20371;-77
2023/03/29 07:54:10;;;;;;;2.37;1.93;;;;;;;;;;5071404;28;20541;-76
2023/03/29 08:03:53;;;;;;;2.83;1.70;;;;;;;;;;5131651;27;20297;-76
2023/03/29 08:08:58;;;;;;;5.47;2.60;;;7.60;99.90;;;;;;5091656;28;20537;-76
2023/03/29 08:13:10;;;;;;;1.93;1.47;;;;;;;;;;5091130;28;20603;-76
2023/03/29 08:17:01;;;;;;;1.73;1.30;;;;;;;;;;5112434;27;20611;-77
2023/03/29 08:20:54;;;;;;;4.40;1.63;;;;;;;;;;5174154;27;20296;-77
2023/03/29 08:23:20;;;;;;;2.00;1.80;;;8.30;99.90;;;;;;5141935;27;20742;-77
2023/03/29 08:25:46;;;;;;;3.27;1.57;;;8.20;99.90;;;;;;5131939;28;20206;-77
2023/03/29 08:28:12;;;;;;;2.57;1.83;;;8.20;99.90;;;;;;5131996;28;20596;-77
2023/03/29 08:30:38;;;;;;;4.13;1.47;;;8.30;99.90;;;;;;5131922;28;20175;-77
2023/03/29 08:33:04;;;;;;;1.90;1.30;;;8.20;99.90;;;;;;5131618;27;20184;-77
2023/03/29 08:35:29;;;;;;;2.43;1.17;;;8.20;99.90;;;;;;5131671;28;20199;-77
2023/03/29 08:37:55;;;;;;;2.10;1.23;;;8.30;99.90;;;;;;5113323;28;20650;-77
2023/03/29 08:40:26;;;;;;;2.87;1.50;;;8.30;99.90;;;;;;5113316;28;20204;-77
2023/03/29 08:43:22;;;;;;;4.00;1.70;;;8.50;99.90;;;;;;5131412;27;20190;-77
2023/03/29 08:45:58;;;;;;;2.40;1.20;;;8.40;99.90;;;;;;5131581;28;20241;-77
2023/03/29 08:48:32;;;;;;;3.77;1.33;;;8.50;99.90;;;;;;5113380;28;20263;-77
2023/03/29 08:51:11;;;;;;;2.53;1.80;;;8.40;99.90;;;;;;5131799;28;20612;-77
2023/03/29 08:53:43;;;;;;;2.33;1.20;;;8.40;99.90;;;;;;5112848;28;20230;-77
2023/03/29 08:56:13;;;;;;;2.30;1.10;;;8.50;99.90;;;;;;5131428;28;20153;-77
2023/03/29 08:58:41;;;;;;;4.30;1.50;;;8.60;99.90;;;;;;5131473;28;20204;-77
2023/03/29 09:01:10;;;;;;;2.53;1.10;;;8.60;99.90;;;;;;5131203;28;20285;-77
2023/03/29 09:03:49;;;;;;;3.40;1.30;;;8.70;99.90;;;;;;5112609;28;20233;-77
2023/03/29 09:06:18;;;;;;;2.80;0.90;;;8.80;99.90;;;;;;5131231;28;20611;-77
2023/03/29 09:08:49;;;;;;;1.93;1.20;;;8.70;99.90;;;;;;5131202;28;20190;-77
2023/03/29 09:11:23;;;;;;;2.97;1.10;;;8.70;99.90;;;;;;5131019;28;20224;-77
2023/03/29 09:13:56;;;;;;;3.07;1.10;;;8.80;99.90;;;;;;5112434;28;20194;-77
2023/03/29 09:16:28;;;;;;;8.10;2.73;;;8.80;99.90;;;;;;5131176;28;20156;-77
2023/03/29 09:19:21;;;;;;;2.43;1.57;;;8.90;99.90;;;;;;5112388;28;20253;-77
2023/03/29 09:22:27;;;;;;;4.00;1.43;;;8.90;99.90;;;;;;5131117;28;20179;-77
2023/03/29 09:24:58;;;;;;;3.37;1.27;;;8.90;99.90;;;;;;5108838;28;20201;-77
2023/03/29 09:27:32;;;;;;;5.43;1.63;;;9.00;99.90;;;;;;5112528;28;20167;-77
2023/03/29 09:30:04;;;;;;;5.13;1.27;;;9.20;99.90;;;;;;5112227;28;20175;-77
2023/03/29 09:32:38;;;;;;;3.47;1.30;;;9.40;99.90;;;;;;5098112;28;20663;-77
2023/03/29 09:35:26;;;;;;;2.37;1.30;;;9.50;99.90;;;;;;5117215;28;20610;-77
2023/03/29 09:37:53;;;;;;;5.20;1.37;;;9.70;99.90;;;;;;5117021;28;20165;-77
2023/03/29 09:40:30;;;;;;;1.60;1.20;;;9.70;99.90;;;;;;5116850;28;20199;-77
2023/03/29 09:42:57;;;;;;;2.23;1.40;;;9.70;99.90;;;;;;5116688;28;20309;-77
2023/03/29 09:45:22;;;;;;;5.07;1.23;;;9.70;99.90;;;;;;5098586;28;20185;-77
2023/03/29 09:47:57;;;;;;;2.77;1.23;;;9.80;99.90;;;;;;5098495;28;20182;-77
2023/03/29 09:50:35;;;;;;;3.17;1.00;;;10.00;99.90;;;;;;5098390;28;20170;-77
2023/03/29 09:53:01;;;;;;;4.17;1.30;;;10.10;99.90;;;;;;5098518;28;20276;-77
2023/03/29 09:55:32;;;;;;;1.87;1.20;;;10.20;99.90;;;;;;5098370;28;20551;-77
2023/03/29 09:58:11;;;;;;;2.03;1.13;;;10.20;99.90;;;;;;5116858;28;20171;-77
2023/03/29 10:00:37;;;;;;;3.40;1.00;;;10.20;99.90;;;;;;5116421;28;20210;-77
2023/03/29 10:03:03;;;;;;;3.97;1.20;;;10.40;99.90;;;;;;5097810;28;20195;-77
2023/03/29 10:05:31;;;;;;;2.47;1.23;;;10.60;99.90;;;;;;5116854;28;20167;-77
2023/03/29 10:07:59;;;;;;;1.87;1.30;;;10.70;99.90;;;;;;5116643;28;20179;-77
2023/03/29 10:10:30;;;;;;;7.87;1.00;;;10.90;99.90;;;;;;5116271;28;20215;-77
2023/03/29 10:12:59;;;;;;;5.07;1.20;;;10.90;99.90;;;;;;5115956;28;20195;-77
2023/03/29 10:15:29;;;;;;;3.17;1.40;;;10.90;99.90;;;;;;5116272;28;20227;-77
2023/03/29 10:18:08;;;;;;;3.77;1.27;;;11.00;99.90;;;;;;5116047;28;20182;-77
2023/03/29 10:20:37;;;;;;;1.80;1.07;;;11.20;99.90;;;;;;5097572;28;20572;-77
2023/03/29 10:23:08;;;;;;;2.67;1.20;;;11.30;99.90;;;;;;5115843;28;20195;-77
2023/03/29 10:25:39;;;;;;;2.07;0.90;;;11.40;99.90;;;;;;5116147;28;20250;-77
2023/03/29 10:28:15;;;;;;;4.67;1.67;;;11.40;99.90;;;;;;5116626;28;20156;-77
2023/03/29 10:30:41;;;;;;;1.60;1.00;;;11.40;99.90;;;;;;5116097;28;20536;-77
2023/03/29 10:33:17;;;;;;;2.20;1.10;;;11.50;99.90;;;;;;5097276;28;20215;-77
2023/03/29 10:35:43;;;;;;;2.80;1.13;;;11.50;99.90;;;;;;5116157;28;20247;-77
2023/03/29 10:38:15;;;;;;;1.50;0.80;;;11.50;99.90;;;;;;5097684;28;20186;-77
2023/03/29 10:40:46;;;;;;;2.43;1.17;;;11.50;99.90;;;;;;5115584;28;20281;-77
2023/03/29 10:43:41;;;;;;;6.67;1.30;;;11.40;99.90;;;;;;5115472;28;20729;-77
2023/03/29 10:46:18;;;;;;;2.20;0.97;;;11.30;99.90;;;;;;5117369;28;20279;-77
2023/03/29 10:49:20;;;;;;;2.93;1.20;;;11.30;99.90;;;;;;5097637;28;20173;-77
2023/03/29 10:51:49;;;;;;;3.87;0.97;;;11.30;99.90;;;;;;5097110;28;20179;-77
2023/03/29 10:54:19;;;;;;;6.47;0.90;;;11.40;99.90;;;;;;5115377;28;20609;-77
2023/03/29 10:56:54;;;;;;;4.10;1.20;;;11.40;99.90;;;;;;5115510;28;20566;-77
2023/03/29 10:59:29;;;;;;;2.43;1.00;;;11.40;99.90;;;;;;5115491;28;20552;-77
2023/03/29 11:02:24;;;;;;;2.97;0.90;;;11.70;99.90;;;;;;5096994;28;20175;-77
2023/03/29 11:05:14;;;;;;;3.23;1.10;;;11.90;99.90;;;;;;5097206;28;20159;-77
2023/03/29 11:08:10;;;;;;;3.23;1.60;;;12.10;99.90;;;;;;5096909;28;20531;-77
2023/03/29 11:10:43;;;;;;;3.67;1.10;;;12.30;99.90;;;;;;5096761;28;20222;-77
2023/03/29 11:13:11;;;;;;;2.60;1.00;;;12.50;99.90;;;;;;5115460;28;20196;-77
2023/03/29 11:16:01;;;;;;;2.17;1.00;;;12.60;98.30;;;;;;5115518;28;20171;-78
2023/03/29 11:18:41;;;;;;;3.13;1.00;;;12.80;98.10;;;;;;5115356;28;20184;-78
2023/03/29 11:21:35;;;;;;;3.00;1.40;;;13.00;96.50;;;;;;5116166;28;20250;-78
2023/03/29 11:24:18;;;;;;;4.10;1.30;;;13.30;96.10;;;;;;5097894;28;20195;-78
2023/03/29 11:27:09;;;;;;;4.53;1.50;;;13.40;95.60;;;;;;5115245;28;20175;-77
2023/03/29 11:29:52;;;;;;;3.83;1.20;;;13.50;93.10;;;;;;5096697;28;20181;-77
2023/03/29 11:32:32;;;;;;;3.17;1.30;;;13.70;92.90;;;;;;5096567;28;20239;-78
2023/03/29 11:35:11;;;;;;;3.63;1.43;;;13.90;92.00;;;;;;5115202;28;20174;-76
2023/03/29 11:37:44;;;;;;;6.73;2.20;;;13.90;91.30;;;;;;5098241;28;20189;-78
2023/03/29 11:40:14;;;;;;;7.43;3.37;;;14.00;90.50;;;;;;5115087;28;20226;-78
2023/03/29 11:42:44;;;;;;;5.33;1.23;;;14.50;90.80;;;;;;5114831;28;20207;-77
2023/03/29 11:45:30;;;;;;;3.33;1.17;;;15.20;88.40;;;;;;5115330;28;20172;-76
2023/03/29 11:47:58;;;;;;;6.63;1.40;;;15.20;84.70;;;;;;5115004;28;20182;-75
2023/03/29 11:50:34;;;;;;;3.73;1.63;;;15.20;85.40;;;;;;5114774;28;20172;-76
2023/03/29 11:53:10;;;;;;;3.93;1.30;;;15.10;82.50;;;;;;5114286;28;20248;-77
2023/03/29 11:55:38;;;;;;;3.87;2.13;;;15.10;79.50;;;;;;5114094;28;20180;-76
2023/03/29 11:58:07;;;;;;;6.43;2.80;;;14.80;81.40;;;;;;5114142;28;20176;-76
2023/03/29 12:00:41;;;;;;;12.13;3.33;;;15.30;79.80;;;;;;5096338;28;20207;-77
2023/03/29 12:03:27;;;;;;;4.63;2.23;;;15.60;78.70;;;;;;5114621;28;20301;-77
2023/03/29 12:06:16;;;;;;;3.43;1.90;;;15.70;77.10;;;;;;5114501;28;20155;-77
2023/03/29 12:09:06;;;;;;;4.20;2.00;;;15.80;75.20;;;;;;5099012;28;20184;-77
2023/03/29 12:11:58;;;;;;;4.77;2.23;;;15.70;73.50;;;;;;5100696;28;20184;-78
2023/03/29 12:14:46;;;;;;;5.50;1.73;;;15.10;72.90;;;;;;5079502;28;20270;-77
2023/03/29 12:17:17;;;;;;;3.07;2.03;;;14.50;72.80;;;;;;5114386;28;20152;-77
2023/03/29 12:19:54;;;;;;;3.53;1.20;;;14.10;74.70;;;;;;5114762;28;20218;-77
2023/03/29 12:22:21;;;;;;;3.93;1.33;;;14.00;75.70;;;;;;5114503;28;20185;-77
2023/03/29 12:24:49;;;;;;;2.23;1.17;;;13.90;76.60;;;;;;5097253;28;20198;-76
2023/03/29 12:27:21;;;;;;;6.10;2.53;;;13.80;78.50;;;;;;5096912;28;20179;-77
2023/03/29 12:30:06;;;;;;;8.87;1.90;;;13.70;80.70;;;;;;5114128;28;20164;-77
2023/03/29 12:32:50;;;;;;;4.70;1.63;;;14.00;82.80;;;;;;5097243;28;20234;-77
2023/03/29 12:35:36;;;;;;;5.37;2.43;;;14.20;86.10;;;;;;5116348;28;20235;-78
2023/03/29 12:38:27;;;;;;;4.83;2.30;;;13.90;87.20;;;;;;5098071;28;20220;-78
2023/03/29 12:41:02;;;;;;;9.93;3.53;;;13.30;90.10;;;;;;5117492;28;20268;-77
2023/03/29 12:43:32;;;;;;;2.43;1.30;;;13.00;91.50;;;;;;5115303;28;20191;-77
2023/03/29 12:46:07;;;;;;;5.37;2.63;;;12.70;91.10;;;;;;5114118;28;20184;-77
2023/03/29 12:48:37;;;;;;;5.47;1.90;;;12.50;93.20;;;;;;5113987;28;20193;-77
2023/03/29 12:51:06;;;;;;;5.57;1.60;;;12.50;93.60;;;;;;5114173;28;20622;-77
2023/03/29 12:53:42;;;;;;;3.97;1.30;;;12.50;95.20;;;;;;5095220;28;20333;-77
2023/03/29 12:56:18;;;;;;;12.03;4.10;;;12.30;95.10;;;;;;5113753;28;20238;-77
2023/03/29 12:58:55;;;;;;;7.70;2.50;;;12.30;97.10;;;;;;5096530;28;20663;-77
2023/03/29 13:01:35;;;;;;;8.47;3.47;;;12.20;98.80;;;;;;5114962;28;20259;-78
2023/03/29 13:04:17;;;;;;;5.93;3.37;;;12.10;99.50;;;;;;5096699;28;20198;-78
2023/03/29 13:06:46;;;;;;;3.03;1.50;;;11.90;99.50;;;;;;5116690;28;20209;-77
2023/03/29 13:09:28;;;;;;;3.00;1.30;;;11.70;99.90;;;;;;5117900;28;20176;-77
2023/03/29 13:12:14;;;;;;;4.93;1.33;;;11.50;99.90;;;;;;5099078;28;20254;-77
2023/03/29 13:14:49;;;;;;;3.27;1.23;;;11.30;99.90;;;;;;5099121;28;20175;-77
2023/03/29 13:17:26;;;;;;;6.73;1.80;;;11.20;99.90;;;;;;5117715;28;20187;-77
2023/03/29 13:20:29;;;;;;;3.40;1.47;;;11.20;99.90;;;;;;5099151;28;20207;-77
2023/03/29 13:23:20;;;;;;;6.00;2.00;;;11.20;99.90;;;;;;5099181;28;20199;-78
2023/03/29 13:26:18;;;;;;;6.13;2.00;;;11.30;99.90;;;;;;5099829;28;20357;-77
2023/03/29 13:29:18;;;;;;;6.50;2.07;;;11.30;99.90;;;;;;5094966;28;20194;-77
2023/03/29 13:31:55;;;;;;;11.67;3.03;;;11.40;99.90;;;;;;5117348;28;20202;-77
2023/03/29 13:34:29;;;;;;;5.37;1.60;;;11.40;99.90;;;;;;5117213;28;20553;-77
2023/03/29 13:37:10;;;;;;;3.73;1.63;;;11.40;99.90;;;;;;5117252;28;20224;-77
2023/03/29 13:39:36;;;;;;;6.50;2.00;;;11.50;99.90;;;;;;5117395;28;20195;-78
2023/03/29 13:42:33;;;;;;;8.30;1.80;;;11.70;99.90;;;;;;5116653;28;20207;-77
2023/03/29 13:45:24;;;;;;;13.77;5.00;;;11.70;99.90;;;;;;5117043;28;20199;-77
2023/03/29 13:48:18;;;;;;;9.40;3.30;;;11.90;99.90;;;;;;5098629;28;20209;-77
2023/03/29 13:50:56;;;;;;;3.87;1.87;;;11.80;99.90;;;;;;5117373;28;20168;-77
2023/03/29 13:53:44;;;;;;;12.37;4.47;;;11.80;99.90;;;;;;5117063;28;20219;-77
2023/03/29 13:56:17;;;;;;;6.57;2.20;;;11.80;99.90;;;;;;5099398;28;20171;-77
2023/03/29 13:58:46;;;;;;;3.53;1.50;;;11.70;99.90;;;;;;5098969;28;20201;-77
2023/03/29 14:01:23;;;;;;;5.20;1.90;;;11.60;99.90;;;;;;5099377;28;20190;-77
2023/03/29 14:03:52;;;;;;;5.43;2.97;;;11.60;99.90;;;;;;5117061;28;20191;-77
2023/03/29 14:06:26;;;;;;;7.73;3.83;;;11.50;99.90;;;;;;5117353;28;20255;-77
2023/03/29 14:08:52;;;;;;;10.27;4.00;;;11.40;99.90;;;;;;5098412;28;20160;-77
2023/03/29 14:11:27;;;;;;;4.10;1.57;;;11.40;99.90;;;;;;5117256;28;20621;-78
2023/03/29 14:13:58;;;;;;;5.80;2.30;;;11.40;99.90;;;;;;5116645;28;20195;-77
2023/03/29 14:16:36;;;;;;;4.13;1.80;;;11.50;99.90;;;;;;5116848;28;20175;-77
2023/03/29 14:19:04;;;;;;;8.50;3.00;;;11.60;99.90;;;;;;5116650;28;20207;-77
2023/03/29 14:24:53;;;;;;;12.50;1.97;;;11.70;99.90;;;;;;5071861;28;20563;-77
2023/03/29 14:29:00;;;;;;;4.70;1.80;;;11.90;99.90;;;;;;5112123;27;20532;-77
2023/03/29 14:33:31;;;;;;;6.50;1.80;;;12.00;99.90;;;;;;5131876;27;20287;-77
2023/03/29 14:38:16;;;;;;;6.47;1.63;;;12.10;99.90;;;;;;5174052;27;20277;-77
2023/03/29 14:43:29;;;;;;;8.93;2.13;;;12.30;99.90;;;;;;5163511;27;20308;-78
2023/03/29 14:49:31;;;;;;;6.00;1.70;;;12.40;99.90;;;;;;5132738;27;20271;-77
2023/03/29 14:55:30;;;;;;;6.27;4.07;;;12.60;99.90;;;;;;5132395;27;20752;-77
2023/03/29 15:02:49;;;;;;;8.63;6.30;;;12.60;99.90;;;;;;5111713;27;20288;-77
2023/03/29 15:10:24;;;;;;;8.57;4.43;;;12.50;99.90;;;;;;5132735;27;20263;-76
2023/03/29 15:23:23;;;;;;;3.67;1.60;;;12.30;99.90;;;;;;5131683;27;20297;-77
2023/03/29 15:28:54;;;;;;;5.30;2.40;;;12.30;99.90;;;;;;5133121;27;20272;-76
2023/03/29 15:34:29;;;;;;;7.03;3.37;;;12.40;99.90;;;;;;5133445;27;20778;-76
2023/03/29 15:39:20;;;;;;;9.63;2.53;;;12.50;99.90;;;;;;5132892;27;20271;-77
2023/03/29 15:43:50;;;;;;;10.30;3.97;;;12.70;99.90;;;;;;5132373;27;20632;-77
2023/03/29 15:48:47;;;;;;;4.23;2.50;;;12.80;99.90;;;;;;5112158;27;20535;-77
2023/03/29 15:55:18;;;;;;;5.40;2.60;;;12.80;99.90;;;;;;5132829;27;20267;-77
2023/03/29 16:13:28;;;;;;;7.27;2.50;;;12.70;99.90;;;;;;5131916;27;20297;-76
2023/03/29 16:27:13;;;;;;;12.00;5.20;;;12.90;99.90;;;;;;5071870;28;20529;-76
2023/03/29 16:39:31;;;;;;;7.60;2.07;;;13.10;99.90;;;;;;5133098;27;20275;-76
2023/03/29 16:53:02;;;;;;;9.20;2.40;;;13.10;99.90;;;;;;5131237;27;20290;-76
